sensor_id;sensor_type;location;lat;lon;timestamp;temperature;humidity
45311;SHT31;68264;51.540;5.854;2023-05-07T00:00:50;14.8;88.6
45311;SHT31;68264;51.540;5.854;2023-05-07T00:14:49;14.7;88.7
45311;SHT31;68264;51.540;5.854;2023-05-07T00:28:48;14.7;89.0
45311;SHT31;68264;51.540;5.854;2023-05-07T00:43:16;14.7;88.9
45311;SHT31;68264;51.540;5.854;2023-05-07T00:58:04;14.6;89.2
45311;SHT31;68264;51.540;5.854;2023-05-07T01:13:25;14.6;89.3
45311;SHT31;68264;51.540;5.854;2023-05-07T01:28:24;14.5;89.2
45311;SHT31;68264;51.540;5.854;2023-05-07T01:42:24;14.5;89.3
45311;SHT31;68264;51.540;5.854;2023-05-07T01:56:52;14.5;89.8
45311;SHT31;68264;51.540;5.854;2023-05-07T02:11:40;14.5;89.9
45311;SHT31;68264;51.540;5.854;2023-05-07T02:25:59;14.5;89.8
45311;SHT31;68264;51.540;5.854;2023-05-07T02:39:58;14.4;90.0
45311;SHT31;68264;51.540;5.854;2023-05-07T02:53:57;14.3;90.1
45311;SHT31;68264;51.540;5.854;2023-05-07T03:08:25;14.3;89.9
45311;SHT31;68264;51.540;5.854;2023-05-07T03:23:14;14.3;90.1
45311;SHT31;68264;51.540;5.854;2023-05-07T03:38:02;14.3;90.0
45311;SHT31;68264;51.540;5.854;2023-05-07T03:52:21;14.3;90.2
45311;SHT31;68264;51.540;5.854;2023-05-07T04:06:20;14.3;90.3
45311;SHT31;68264;51.540;5.854;2023-05-07T04:20:48;14.4;90.6
45311;SHT31;68264;51.540;5.854;2023-05-07T04:35:37;14.5;90.8
45311;SHT31;68264;51.540;5.854;2023-05-07T04:49:56;14.6;90.7
45311;SHT31;68264;51.540;5.854;2023-05-07T05:04:56;14.8;91.0
45311;SHT31;68264;51.540;5.854;2023-05-07T05:19:56;15.1;90.9
45311;SHT31;68264;51.540;5.854;2023-05-07T05:34:24;15.3;90.8
45311;SHT31;68264;51.540;5.854;2023-05-07T05:49:12;15.6;90.2
45311;SHT31;68264;51.540;5.854;2023-05-07T06:05:37;16.0;89.3
45311;SHT31;68264;51.540;5.854;2023-05-07T06:21:37;16.2;88.1
45311;SHT31;68264;51.540;5.854;2023-05-07T06:36:37;16.5;86.6
45311;SHT31;68264;51.540;5.854;2023-05-07T07:20:24;17.8;81.6
45311;SHT31;68264;51.540;5.854;2023-05-07T07:35:24;18.4;80.6
45311;SHT31;68264;51.540;5.854;2023-05-07T07:50:24;18.8;77.8
45311;SHT31;68264;51.540;5.854;2023-05-07T08:05:24;19.3;75.8
45311;SHT31;68264;51.540;5.854;2023-05-07T08:20:24;19.5;75.6
45311;SHT31;68264;51.540;5.854;2023-05-07T08:34:23;20.2;73.2
45311;SHT31;68264;51.540;5.854;2023-05-07T08:48:51;21.2;68.3
45311;SHT31;68264;51.540;5.854;2023-05-07T09:03:10;22.0;64.7
45311;SHT31;68264;51.540;5.854;2023-05-07T09:17:38;22.2;63.8
45311;SHT31;68264;51.540;5.854;2023-05-07T09:32:26;22.4;64.6
45311;SHT31;68264;51.540;5.854;2023-05-07T09:46:46;22.8;62.6
45311;SHT31;68264;51.540;5.854;2023-05-07T10:00:45;22.8;63.3
45311;SHT31;68264;51.540;5.854;2023-05-07T10:14:44;24.3;63.1
45311;SHT31;68264;51.540;5.854;2023-05-07T10:28:43;24.4;59.3
45311;SHT31;68264;51.540;5.854;2023-05-07T10:43:11;24.4;57.5
45311;SHT31;68264;51.540;5.854;2023-05-07T10:57:59;24.0;60.7
45311;SHT31;68264;51.540;5.854;2023-05-07T11:12:18;23.5;60.0
45311;SHT31;68264;51.540;5.854;2023-05-07T11:26:17;24.0;58.5
45311;SHT31;68264;51.540;5.854;2023-05-07T11:40:46;24.8;55.4
45311;SHT31;68264;51.540;5.854;2023-05-07T11:55:05;24.9;55.6
45311;SHT31;68264;51.540;5.854;2023-05-07T12:09:04;24.6;56.5
45311;SHT31;68264;51.540;5.854;2023-05-07T12:23:32;24.4;56.9
45311;SHT31;68264;51.540;5.854;2023-05-07T12:37:51;24.1;58.7
45311;SHT31;68264;51.540;5.854;2023-05-07T12:52:19;23.2;54.5
45311;SHT31;68264;51.540;5.854;2023-05-07T13:07:08;22.8;57.1
45311;SHT31;68264;51.540;5.854;2023-05-07T13:35:26;21.0;65.0
45311;SHT31;68264;51.540;5.854;2023-05-07T13:49:25;17.4;75.2
45311;SHT31;68264;51.540;5.854;2023-05-07T14:03:24;16.0;85.4
45311;SHT31;68264;51.540;5.854;2023-05-07T14:17:23;15.1;86.1
45311;SHT31;68264;51.540;5.854;2023-05-07T14:31:51;15.1;88.4
45311;SHT31;68264;51.540;5.854;2023-05-07T14:46:10;15.0;84.7
45311;SHT31;68264;51.540;5.854;2023-05-07T15:00:38;15.3;86.5
45311;SHT31;68264;51.540;5.854;2023-05-07T15:14:58;15.8;86.5
45311;SHT31;68264;51.540;5.854;2023-05-07T15:29:26;16.3;83.4
45311;SHT31;68264;51.540;5.854;2023-05-07T15:44:14;16.7;85.2
45311;SHT31;68264;51.540;5.854;2023-05-07T15:58:33;17.4;84.2
45311;SHT31;68264;51.540;5.854;2023-05-07T16:13:02;17.6;81.3
45311;SHT31;68264;51.540;5.854;2023-05-07T16:27:21;18.0;79.8
45311;SHT31;68264;51.540;5.854;2023-05-07T16:41:20;17.9;81.5
45311;SHT31;68264;51.540;5.854;2023-05-07T16:55:19;17.9;80.6
45311;SHT31;68264;51.540;5.854;2023-05-07T17:09:47;18.1;81.2
45311;SHT31;68264;51.540;5.854;2023-05-07T17:24:06;18.0;79.9
45311;SHT31;68264;51.540;5.854;2023-05-07T17:38:34;17.9;80.8
45311;SHT31;68264;51.540;5.854;2023-05-07T17:52:54;17.7;80.5
45311;SHT31;68264;51.540;5.854;2023-05-07T18:06:53;17.4;82.2
45311;SHT31;68264;51.540;5.854;2023-05-07T18:20:52;17.2;83.5
45311;SHT31;68264;51.540;5.854;2023-05-07T18:34:51;17.0;83.8
45311;SHT31;68264;51.540;5.854;2023-05-07T18:48:50;16.8;84.3
45311;SHT31;68264;51.540;5.854;2023-05-07T19:02:49;16.7;84.3
45311;SHT31;68264;51.540;5.854;2023-05-07T19:17:49;16.5;84.8
45311;SHT31;68264;51.540;5.854;2023-05-07T19:32:49;16.3;85.5
45311;SHT31;68264;51.540;5.854;2023-05-07T19:46:48;16.2;85.7
45311;SHT31;68264;51.540;5.854;2023-05-07T20:00:47;16.2;86.8
45311;SHT31;68264;51.540;5.854;2023-05-07T20:14:46;16.0;87.2
45311;SHT31;68264;51.540;5.854;2023-05-07T20:28:45;16.0;87.7
45311;SHT31;68264;51.540;5.854;2023-05-07T20:42:44;15.9;88.0
45311;SHT31;68264;51.540;5.854;2023-05-07T20:57:12;15.9;88.6
45311;SHT31;68264;51.540;5.854;2023-05-07T21:11:31;15.8;88.8
45311;SHT31;68264;51.540;5.854;2023-05-07T21:25:59;15.7;89.0
45311;SHT31;68264;51.540;5.854;2023-05-07T21:40:19;15.7;89.2
45311;SHT31;68264;51.540;5.854;2023-05-07T21:54:18;15.6;89.1
45311;SHT31;68264;51.540;5.854;2023-05-07T22:08:17;15.6;89.1
45311;SHT31;68264;51.540;5.854;2023-05-07T22:22:16;15.4;90.4
45311;SHT31;68264;51.540;5.854;2023-05-07T22:36:15;15.4;90.6
45311;SHT31;68264;51.540;5.854;2023-05-07T22:50:14;15.5;90.6
45311;SHT31;68264;51.540;5.854;2023-05-07T23:04:13;15.5;90.7
45311;SHT31;68264;51.540;5.854;2023-05-07T23:18:12;15.4;90.3
45311;SHT31;68264;51.540;5.854;2023-05-07T23:32:11;15.4;90.6
45311;SHT31;68264;51.540;5.854;2023-05-07T23:46:10;15.4;90.7
